Time;durP1;ratioP1;P1;durP2;ratioP2;P2;SDS_P1;SDS_P2;PMS_P1;PMS_P2;Temp;Humidity;BMP_temperature;BMP_pressure;BME280_temperature;BME280_humidity;BME280_pressure;Samples;Min_cycle;Max_cycle;Signal;HPM_P1;HPM_P2
2022/04/29 00:02:13;;;;;;;10.60;4.60;;;;;;;7.82;90.44;103139.63;5090620;28;20024;-53
2022/04/29 00:04:39;;;;;;;9.43;4.20;;;;;;;7.77;90.10;103146.66;5087808;28;20042;-55
2022/04/29 00:07:06;;;;;;;8.85;4.03;;;;;;;7.77;90.38;103142.25;5089310;28;20493;-56
2022/04/29 00:09:33;;;;;;;11.13;4.10;;;;;;;7.76;90.15;103126.41;5076057;28;20494;-53
2022/04/29 00:11:59;;;;;;;6.90;4.00;;;;;;;7.68;89.86;103132.53;5075077;28;20441;-55
2022/04/29 00:14:25;;;;;;;10.30;4.13;;;;;;;7.67;90.09;103127.25;5089683;28;20035;-51
2022/04/29 00:16:50;;;;;;;8.52;4.05;;;;;;;7.66;89.42;103125.50;5091321;28;20024;-51
2022/04/29 00:19:16;;;;;;;10.38;3.88;;;;;;;7.70;88.84;103122.00;5090787;28;20032;-55
2022/04/29 00:21:42;;;;;;;8.30;3.90;;;;;;;7.64;89.16;103122.00;5090715;28;20039;-54
2022/04/29 00:24:09;;;;;;;7.35;4.40;;;;;;;7.60;89.45;103110.53;5075276;28;20032;-55
2022/04/29 00:26:37;;;;;;;9.18;3.67;;;;;;;7.62;89.42;103113.19;5085914;28;20036;-54
2022/04/29 00:29:06;;;;;;;9.77;3.50;;;;;;;7.57;89.57;103109.63;5079150;28;20577;-52
2022/04/29 00:31:32;;;;;;;9.65;3.90;;;;;;;7.53;89.15;103112.28;5090577;28;20020;-51
2022/04/29 00:33:58;;;;;;;7.22;3.75;;;;;;;7.53;89.27;103114.91;5085135;28;20050;-53
2022/04/29 00:36:24;;;;;;;9.00;4.03;;;;;;;7.50;89.61;103114.00;5091088;28;20035;-53
2022/04/29 00:38:50;;;;;;;7.25;4.32;;;;;;;7.50;89.76;103119.28;5087284;28;20487;-54
2022/04/29 00:41:20;;;;;;;9.48;4.45;;;;;;;7.53;89.48;103107.00;5088422;28;20503;-56
2022/04/29 00:43:46;;;;;;;10.52;4.43;;;;;;;7.51;89.70;103100.84;5086373;28;20076;-55
2022/04/29 00:46:12;;;;;;;10.40;4.32;;;;;;;7.44;89.52;103106.94;5092633;28;20027;-56
2022/04/29 00:48:37;;;;;;;10.13;4.10;;;;;;;7.40;89.94;103099.03;5091700;28;20031;-55
2022/04/29 00:51:04;;;;;;;14.30;4.90;;;;;;;7.43;89.60;103107.84;5091932;28;20035;-52
2022/04/29 00:53:30;;;;;;;12.20;4.53;;;;;;;7.38;89.70;103093.75;5075534;28;20117;-54
2022/04/29 00:55:57;;;;;;;10.63;5.15;;;;;;;7.36;90.17;103096.34;5091318;28;20429;-52
2022/04/29 00:58:36;;;;;;;12.68;4.50;;;;;;;7.35;90.82;103104.25;5087472;28;20035;-51
2022/04/29 01:01:03;;;;;;;8.32;4.43;;;;;;;7.37;90.51;103098.13;5078939;28;20039;-53
2022/04/29 01:03:30;;;;;;;10.57;4.53;;;;;;;7.35;90.37;103097.25;5087886;28;20032;-54
2022/04/29 01:05:55;;;;;;;8.98;4.57;;;;;;;7.35;90.78;103088.44;5079962;28;20073;-53
2022/04/29 01:08:21;;;;;;;10.60;4.70;;;;;;;7.36;90.99;103090.22;5079172;28;20036;-55
2022/04/29 01:10:47;;;;;;;12.68;4.85;;;;;;;7.34;91.04;103087.56;5095560;28;20035;-53
2022/04/29 01:13:13;;;;;;;12.00;4.85;;;;;;;7.31;90.90;103094.59;5091303;28;20078;-54
2022/04/29 01:15:38;;;;;;;10.85;4.75;;;;;;;7.31;91.20;103091.94;5081323;28;20491;-56
2022/04/29 01:18:08;;;;;;;9.05;4.60;;;;;;;7.31;91.29;103087.53;5084542;28;20647;-52
2022/04/29 01:20:34;;;;;;;8.13;4.88;;;;;;;7.29;91.17;103084.03;5082444;28;20468;-54
2022/04/29 01:23:10;;;;;;;11.38;5.15;;;;;;;7.31;91.47;103082.28;5076486;28;20023;-56
2022/04/29 01:25:36;;;;;;;9.88;5.05;;;;;;;7.27;91.68;103077.88;5089368;28;20048;-57
2022/04/29 01:28:01;;;;;;;11.80;5.07;;;;;;;7.23;91.60;103078.72;5085332;28;20483;-56
2022/04/29 01:30:27;;;;;;;9.18;5.00;;;;;;;7.18;92.10;103062.03;5086103;28;20102;-56
2022/04/29 01:32:55;;;;;;;12.18;5.30;;;;;;;7.18;92.13;103076.06;5071736;28;20028;-55
2022/04/29 01:35:21;;;;;;;8.73;4.88;;;;;;;7.17;92.45;103079.59;5076709;28;20036;-54
2022/04/29 01:37:46;;;;;;;12.60;5.50;;;;;;;7.14;92.91;103073.44;5091347;28;20559;-55
2022/04/29 01:40:13;;;;;;;9.50;5.50;;;;;;;7.11;92.75;103076.03;5071949;28;20065;-56
2022/04/29 01:42:39;;;;;;;12.88;5.60;;;;;;;7.14;93.34;103070.78;5073322;28;20028;-57
2022/04/29 01:45:05;;;;;;;14.18;5.28;;;;;;;7.10;93.17;103068.97;5086697;28;20032;-57
2022/04/29 01:47:30;;;;;;;9.68;5.13;;;;;;;7.14;93.18;103069.03;5060255;28;20040;-56
2022/04/29 01:49:55;;;;;;;14.40;5.72;;;;;;;7.11;93.25;103076.03;5091179;28;20016;-55
2022/04/29 01:52:21;;;;;;;11.00;5.40;;;;;;;7.12;93.25;103067.25;5092703;28;20053;-55
2022/04/29 01:54:46;;;;;;;14.43;5.95;;;;;;;7.15;93.37;103057.63;5074454;28;20107;-56
2022/04/29 01:57:12;;;;;;;11.48;5.25;;;;;;;7.11;93.32;103053.22;5085106;28;20031;-56
2022/04/29 01:59:37;;;;;;;11.38;5.10;;;;;;;7.12;93.49;103054.06;5070537;28;20047;-56
2022/04/29 02:02:06;;;;;;;9.98;5.53;;;;;;;7.09;93.55;103051.44;5104286;28;20024;-55
2022/04/29 02:04:31;;;;;;;12.60;5.68;;;;;;;7.02;94.06;103058.41;5092403;28;20037;-57
2022/04/29 02:06:56;;;;;;;11.00;5.75;;;;;;;6.99;94.43;103059.25;5043777;28;20107;-56
2022/04/29 02:09:22;;;;;;;10.50;5.93;;;;;;;6.98;94.36;103064.53;5071412;28;20032;-55
2022/04/29 02:12:05;;;;;;;8.70;5.10;;;;;;;7.02;94.54;103064.56;5090458;28;20035;-53
2022/04/29 02:14:32;;;;;;;11.20;6.10;;;;;;;7.02;93.98;103061.94;5101219;28;20055;-57
2022/04/29 02:16:58;;;;;;;11.40;5.40;;;;;;;6.99;94.39;103059.25;5067012;28;20067;-55
2022/04/29 02:19:24;;;;;;;14.32;5.80;;;;;;;6.97;94.53;103061.03;5071106;28;20480;-56
2022/04/29 02:21:50;;;;;;;12.60;5.38;;;;;;;7.03;93.90;103062.81;5086457;28;20036;-55
2022/04/29 02:24:15;;;;;;;9.82;5.40;;;;;;;7.02;94.03;103069.84;5091778;28;20181;-57
2022/04/29 02:26:41;;;;;;;11.65;5.63;;;;;;;7.01;94.63;103060.16;5080583;28;20387;-56
2022/04/29 02:29:09;;;;;;;12.95;6.47;;;;;;;6.99;95.12;103064.53;5089517;28;20093;-54
2022/04/29 02:31:35;;;;;;;13.77;6.15;;;;;;;7.01;95.03;103067.19;5090547;28;20032;-56
2022/04/29 02:34:00;;;;;;;8.77;5.63;;;;;;;7.04;94.64;103072.47;5072920;28;20032;-54
2022/04/29 02:36:26;;;;;;;14.32;5.90;;;;;;;7.01;94.67;103069.84;5099560;28;20494;-54
2022/04/29 02:38:51;;;;;;;11.30;5.80;;;;;;;7.03;94.96;103068.97;5097610;28;20028;-52
2022/04/29 02:41:18;;;;;;;11.35;5.90;;;;;;;7.02;94.40;103071.56;5089351;28;20143;-54
2022/04/29 02:43:44;;;;;;;11.85;5.72;;;;;;;7.02;94.55;103061.03;5093796;28;20124;-53
2022/04/29 02:46:09;;;;;;;9.70;5.47;;;;;;;7.04;94.28;103046.13;5087931;28;20051;-54
2022/04/29 02:48:35;;;;;;;12.75;5.68;;;;;;;7.00;94.61;103054.91;5089437;28;20531;-55
2022/04/29 02:51:02;;;;;;;15.52;6.28;;;;;;;6.98;95.05;103044.38;5086093;28;20039;-56
2022/04/29 02:53:29;;;;;;;11.43;6.05;;;;;;;7.00;94.52;103045.22;5056011;28;20021;-56
2022/04/29 02:55:54;;;;;;;15.07;6.00;;;;;;;6.99;94.43;103043.47;5075320;28;20813;-55
2022/04/29 02:58:19;;;;;;;12.55;6.30;;;;;;;6.93;94.72;103042.56;5090447;28;20509;-55
2022/04/29 03:00:44;;;;;;;11.23;5.68;;;;;;;6.92;95.09;103046.06;5087324;28;20554;-56
2022/04/29 03:03:10;;;;;;;16.17;5.93;;;;;;;6.88;95.24;103035.50;5094556;28;20019;-58
2022/04/29 03:05:35;;;;;;;14.98;6.22;;;;;;;6.88;94.94;103050.44;5098861;28;20028;-57
2022/04/29 03:08:00;;;;;;;15.93;5.63;;;;;;;6.84;95.25;103052.19;5093103;28;20440;-55
2022/04/29 03:10:26;;;;;;;13.77;6.18;;;;;;;6.88;95.59;103046.03;5086349;28;20028;-55
2022/04/29 03:12:52;;;;;;;12.40;5.85;;;;;;;6.89;95.98;103039.00;5085289;28;20115;-57
2022/04/29 03:15:18;;;;;;;10.88;5.60;;;;;;;6.86;95.81;103044.28;5085539;28;20036;-55
2022/04/29 03:20:37;;;;;;;13.45;6.20;;;;;;;6.80;96.24;103045.09;5092000;28;20039;-55
2022/04/29 03:23:03;;;;;;;14.05;5.78;;;;;;;6.78;96.40;103045.97;5091932;28;20032;-56
2022/04/29 03:25:29;;;;;;;14.30;5.93;;;;;;;6.78;96.26;103057.41;5082434;28;20040;-57
2022/04/29 03:27:54;;;;;;;15.20;6.20;;;;;;;6.73;96.29;103051.22;5076250;28;20038;-56
2022/04/29 03:30:19;;;;;;;16.02;5.60;;;;;;;6.70;96.43;103044.19;5078896;28;20039;-55
2022/04/29 03:32:55;;;;;;;13.38;6.30;;;;;;;6.69;96.79;103042.41;5088963;28;20032;-56
2022/04/29 03:35:21;;;;;;;12.15;6.00;;;;;;;6.67;96.95;103038.88;5079438;28;20031;-56
2022/04/29 03:37:48;;;;;;;11.25;6.07;;;;;;;6.67;97.24;103040.63;5091825;28;20103;-56
2022/04/29 03:40:14;;;;;;;11.38;5.85;;;;;;;6.66;97.32;103033.59;5072153;28;20048;-56
2022/04/29 03:42:40;;;;;;;11.48;5.95;;;;;;;6.66;96.91;103036.25;5076797;28;20044;-54
2022/04/29 03:45:06;;;;;;;13.38;5.60;;;;;;;6.68;97.13;103027.47;5091357;28;20152;-53
2022/04/29 03:47:31;;;;;;;13.55;6.38;;;;;;;6.65;97.16;103021.31;5087993;28;20020;-56
2022/04/29 03:49:57;;;;;;;16.23;6.35;;;;;;;6.66;97.46;103023.06;5087160;28;20020;-54
2022/04/29 03:52:22;;;;;;;12.60;6.22;;;;;;;6.67;97.51;103015.19;5081013;28;20028;-55
2022/04/29 03:54:48;;;;;;;11.55;6.30;;;;;;;6.65;96.87;103009.03;5073521;28;20438;-56
2022/04/29 03:57:13;;;;;;;10.70;6.20;;;;;;;6.69;96.41;103000.28;5086447;28;20024;-54
2022/04/29 03:59:39;;;;;;;11.50;5.60;;;;;;;6.70;96.75;103003.78;5088978;28;20035;-54
2022/04/29 04:02:05;;;;;;;12.95;6.30;;;;;;;6.65;97.08;103000.25;5072004;28;20108;-56
2022/04/29 04:04:30;;;;;;;9.85;5.78;;;;;;;6.65;96.56;102997.59;5067440;28;20039;-54
2022/04/29 04:07:01;;;;;;;13.73;6.03;;;;;;;6.65;96.95;102989.72;5093259;28;20040;-52
2022/04/29 04:09:26;;;;;;;10.20;5.72;;;;;;;6.59;97.05;102993.19;5072817;28;20040;-55
2022/04/29 04:11:52;;;;;;;16.23;6.55;;;;;;;6.57;96.91;102992.28;5077642;28;20097;-56
2022/04/29 04:14:18;;;;;;;17.63;6.57;;;;;;;6.54;97.84;102984.41;5091461;28;20464;-56
2022/04/29 04:16:47;;;;;;;13.73;6.15;;;;;;;6.54;97.40;102994.91;5082604;28;20040;-55
2022/04/29 04:19:12;;;;;;;13.23;6.57;;;;;;;6.52;97.88;102996.66;5093028;28;20103;-53
2022/04/29 04:21:39;;;;;;;12.43;6.03;;;;;;;6.51;98.36;102998.41;5071819;28;20131;-56
2022/04/29 04:24:05;;;;;;;11.98;6.43;;;;;;;6.54;98.11;103001.06;5089478;28;20034;-56
2022/04/29 04:26:31;;;;;;;12.68;6.18;;;;;;;6.55;97.54;103008.09;5091072;28;20032;-53
2022/04/29 04:28:57;;;;;;;20.15;6.57;;;;;;;6.53;97.89;102991.41;5088014;28;20382;-54
2022/04/29 04:31:24;;;;;;;15.43;6.15;;;;;;;6.55;98.12;102994.06;5044839;28;20028;-56
2022/04/29 04:33:50;;;;;;;12.68;6.35;;;;;;;6.56;98.22;102994.06;5070001;28;20558;-52
2022/04/29 04:36:15;;;;;;;11.35;6.22;;;;;;;6.55;98.29;102996.69;5088009;28;20107;-52
2022/04/29 04:38:42;;;;;;;13.38;6.47;;;;;;;6.60;97.95;102992.34;5087935;28;20402;-53
2022/04/29 04:41:08;;;;;;;17.85;6.75;;;;;;;6.60;97.45;102983.53;5086695;28;20128;-55
2022/04/29 04:43:35;;;;;;;16.48;6.30;;;;;;;6.60;97.61;103000.22;5064614;28;20480;-55
2022/04/29 04:46:01;;;;;;;15.38;6.72;;;;;;;6.55;98.06;103002.81;5065199;28;20086;-56
2022/04/29 04:48:26;;;;;;;11.20;6.53;;;;;;;6.56;98.48;102996.69;5080281;28;20028;-51
2022/04/29 04:50:52;;;;;;;12.68;6.40;;;;;;;6.62;98.49;103001.09;5071771;28;20060;-56
2022/04/29 04:53:17;;;;;;;12.55;6.63;;;;;;;6.64;97.61;103007.28;5066783;28;20036;-54
2022/04/29 04:55:42;;;;;;;14.05;6.63;;;;;;;6.59;98.23;103006.38;5072775;28;20082;-53
2022/04/29 04:58:09;;;;;;;13.48;6.65;;;;;;;6.60;98.25;103018.66;5069287;28;20090;-56
2022/04/29 05:00:35;;;;;;;14.63;6.60;;;;;;;6.64;98.76;103004.63;5064164;28;20029;-56
2022/04/29 05:03:01;;;;;;;13.65;5.80;;;;;;;6.63;98.40;103013.41;5070359;28;20037;-55
2022/04/29 05:05:26;;;;;;;12.93;6.30;;;;;;;6.61;97.90;103019.53;5070371;28;20032;-53
2022/04/29 05:07:51;;;;;;;15.18;5.90;;;;;;;6.62;98.18;103032.69;5061230;28;20029;-54
2022/04/29 05:10:18;;;;;;;14.85;6.22;;;;;;;6.68;98.58;103029.25;5061549;28;20488;-55
2022/04/29 05:12:46;;;;;;;11.85;6.10;;;;;;;6.66;97.45;103031.88;5066990;28;20024;-55
2022/04/29 05:15:14;;;;;;;17.15;6.53;;;;;;;6.70;97.45;103027.47;5069244;28;20028;-57
2022/04/29 05:17:39;;;;;;;12.63;6.10;;;;;;;6.73;97.49;103025.75;5068450;28;20050;-55
2022/04/29 05:20:07;;;;;;;11.52;6.68;;;;;;;6.77;97.56;103029.28;5062824;28;20465;-54
2022/04/29 05:22:32;;;;;;;11.48;6.07;;;;;;;6.87;96.83;103025.84;5070083;28;20036;-56
2022/04/29 05:24:58;;;;;;;13.15;5.95;;;;;;;6.96;96.91;103025.03;5073061;28;20442;-54
2022/04/29 05:27:23;;;;;;;13.95;6.32;;;;;;;7.12;96.30;103020.69;5068496;28;20513;-56
2022/04/29 05:29:49;;;;;;;14.25;6.30;;;;;;;7.21;95.57;103022.50;5074776;28;20055;-57
2022/04/29 05:32:16;;;;;;;11.10;5.97;;;;;;;7.32;94.73;103015.50;5072887;28;20024;-55
2022/04/29 05:34:42;;;;;;;15.45;6.25;;;;;;;7.42;94.46;103018.19;5069937;28;20379;-55
2022/04/29 05:37:08;;;;;;;20.52;6.15;;;;;;;7.55;94.77;103020.00;5072876;28;20070;-56
2022/04/29 05:42:18;;;;;;;13.05;5.05;;;;;;;7.81;91.73;103020.06;5093439;28;20043;-55
2022/04/29 05:44:44;;;;;;;12.70;5.20;;;;;;;7.84;91.05;103021.84;5073808;28;20929;-56
2022/04/29 05:47:10;;;;;;;10.60;5.18;;;;;;;7.87;91.42;103019.19;5087949;28;20036;-56
2022/04/29 05:49:35;;;;;;;15.60;5.40;;;;;;;7.88;91.71;103032.38;5087243;28;20024;-55
2022/04/29 05:52:02;;;;;;;10.68;4.93;;;;;;;8.00;90.67;103030.63;5093694;28;20093;-54
2022/04/29 05:54:28;;;;;;;13.98;5.68;;;;;;;8.04;91.19;103037.66;5092916;28;20062;-57
2022/04/29 05:56:53;;;;;;;14.85;5.60;;;;;;;8.03;90.56;103033.25;5093557;28;20044;-54
2022/04/29 05:59:19;;;;;;;11.95;5.35;;;;;;;7.91;90.31;103036.78;5104040;28;20071;-55
2022/04/29 06:01:44;;;;;;;10.45;5.35;;;;;;;7.87;90.34;103037.66;5073898;28;20040;-57
2022/04/29 06:04:10;;;;;;;11.00;5.15;;;;;;;8.00;90.67;103033.28;5093317;28;20035;-53
2022/04/29 06:06:35;;;;;;;10.75;5.05;;;;;;;8.15;90.24;103030.66;5089260;28;20039;-54
2022/04/29 06:09:00;;;;;;;9.73;4.97;;;;;;;8.20;89.22;103030.66;5073031;28;20846;-55
2022/04/29 06:11:26;;;;;;;11.63;4.72;;;;;;;8.18;89.05;103040.31;5067401;28;20036;-55
2022/04/29 06:13:53;;;;;;;11.20;5.40;;;;;;;8.26;89.06;103042.97;5094194;28;20103;-54
2022/04/29 06:16:18;;;;;;;17.08;5.10;;;;;;;8.25;88.96;103043.84;5070092;28;20067;-55
2022/04/29 06:18:43;;;;;;;14.25;5.50;;;;;;;8.28;88.19;103050.00;5084277;28;20055;-55
2022/04/29 06:21:09;;;;;;;15.23;5.70;;;;;;;8.29;87.70;103041.22;5080967;28;20067;-54
2022/04/29 06:23:34;;;;;;;10.98;5.10;;;;;;;8.45;88.48;103044.75;5086615;28;20034;-55
2022/04/29 06:26:00;;;;;;;10.43;4.80;;;;;;;8.53;87.36;103044.78;5073694;28;20032;-56
2022/04/29 06:28:25;;;;;;;14.30;5.20;;;;;;;8.43;87.52;103053.53;5082366;28;20475;-53
2022/04/29 06:30:51;;;;;;;12.00;5.25;;;;;;;8.47;87.36;103050.91;5089082;28;20027;-55
2022/04/29 06:33:16;;;;;;;13.35;5.32;;;;;;;8.49;87.05;103051.81;5088048;28;20042;-55
2022/04/29 06:35:42;;;;;;;11.82;4.90;;;;;;;8.53;87.78;103056.19;5078846;28;20096;-56
2022/04/29 06:38:09;;;;;;;10.50;5.25;;;;;;;8.77;87.29;103051.78;5089411;28;20035;-54
2022/04/29 06:40:35;;;;;;;13.70;5.22;;;;;;;8.91;86.21;103064.06;5093733;28;20055;-54
2022/04/29 06:43:00;;;;;;;10.40;5.35;;;;;;;9.04;85.29;103064.91;5093932;28;20024;-55
2022/04/29 06:45:25;;;;;;;14.20;5.10;;;;;;;8.97;85.33;103058.78;5058665;28;20135;-56
2022/04/29 06:47:51;;;;;;;11.63;5.43;;;;;;;8.97;85.47;103059.66;5075485;28;20032;-54
2022/04/29 06:50:16;;;;;;;11.18;5.53;;;;;;;9.14;84.74;103064.00;5076668;28;20028;-55
2022/04/29 06:52:41;;;;;;;13.07;5.10;;;;;;;9.21;84.21;103064.88;5075422;28;20042;-55
2022/04/29 06:55:08;;;;;;;18.95;5.60;;;;;;;9.31;82.89;103067.47;5075316;28;20028;-52
2022/04/29 06:57:34;;;;;;;10.90;5.47;;;;;;;9.11;83.71;103066.69;5093938;28;20036;-54
2022/04/29 07:00:00;;;;;;;12.68;5.32;;;;;;;8.97;84.48;103078.16;5075610;28;20032;-55
2022/04/29 07:02:26;;;;;;;13.15;5.13;;;;;;;9.10;85.22;103081.63;5096851;28;20046;-54
2022/04/29 07:04:53;;;;;;;11.15;5.13;;;;;;;9.35;84.63;103069.22;5074937;28;20028;-53
2022/04/29 07:07:19;;;;;;;15.85;4.95;;;;;;;9.43;83.27;103071.84;5093478;28;20095;-56
2022/04/29 07:09:44;;;;;;;14.00;5.43;;;;;;;9.52;82.92;103078.84;5093207;28;20103;-55
2022/04/29 07:12:10;;;;;;;12.68;6.00;;;;;;;9.61;82.05;103059.41;5090339;28;20032;-55
2022/04/29 07:14:36;;;;;;;13.02;5.55;;;;;;;9.15;83.04;103063.13;5075097;28;20468;-56
2022/04/29 07:17:01;;;;;;;13.27;5.70;;;;;;;9.08;83.39;103064.91;5081182;28;20436;-55
2022/04/29 07:19:26;;;;;;;15.82;5.97;;;;;;;9.12;84.64;103057.88;5093236;28;20031;-56
2022/04/29 07:21:52;;;;;;;12.55;5.57;;;;;;;9.19;84.37;103051.66;5093214;28;20032;-55
2022/04/29 07:24:18;;;;;;;12.95;5.95;;;;;;;9.30;84.67;103047.22;5092461;28;20028;-55
2022/04/29 07:26:44;;;;;;;12.00;5.82;;;;;;;9.30;84.10;103039.28;5080589;28;20418;-56
2022/04/29 07:29:09;;;;;;;9.73;5.38;;;;;;;9.21;84.07;103036.69;5081706;28;20040;-55
2022/04/29 07:31:34;;;;;;;13.30;6.05;;;;;;;9.09;84.45;103042.00;5072654;28;20387;-55
2022/04/29 07:34:00;;;;;;;13.82;5.47;;;;;;;9.12;85.38;103040.22;5083053;28;20040;-54
2022/04/29 07:42:07;;;;;;;12.27;5.40;;;;;;;9.27;83.22;103044.59;5048699;28;20395;-54
2022/04/29 07:44:33;;;;;;;12.10;5.28;;;;;;;9.34;83.82;103037.50;5089784;28;20028;-54
2022/04/29 07:46:59;;;;;;;11.10;4.97;;;;;;;9.22;84.07;103048.13;5095184;28;20375;-54
2022/04/29 07:49:24;;;;;;;16.73;5.35;;;;;;;9.29;84.31;103042.81;5112449;28;20044;-56
2022/04/29 07:51:50;;;;;;;10.23;5.28;;;;;;;9.33;83.90;103041.03;5111678;28;20028;-53
2022/04/29 07:54:15;;;;;;;12.52;5.00;;;;;;;9.52;82.91;103039.19;5112587;28;20030;-53
2022/04/29 07:56:41;;;;;;;13.73;5.78;;;;;;;9.62;82.43;103038.25;5087795;28;20031;-52
2022/04/29 07:59:06;;;;;;;13.05;5.72;;;;;;;9.79;82.36;103040.78;5065960;28;20028;-56
2022/04/29 08:01:34;;;;;;;12.77;4.90;;;;;;;9.80;81.66;103047.84;5077331;28;20028;-55
2022/04/29 08:04:00;;;;;;;12.98;5.65;;;;;;;9.71;81.64;103058.47;5083385;28;20035;-55
2022/04/29 08:06:26;;;;;;;13.23;5.20;;;;;;;9.76;81.69;103050.53;5080728;28;20394;-55
2022/04/29 08:08:52;;;;;;;17.88;5.40;;;;;;;9.67;82.25;103044.38;5090801;28;20039;-56
2022/04/29 08:11:18;;;;;;;12.75;4.60;;;;;;;9.71;82.30;103068.19;5091609;28;20285;-54
2022/04/29 08:13:44;;;;;;;14.48;6.43;;;;;;;9.80;81.13;103070.78;5091739;28;20028;-55
2022/04/29 08:16:10;;;;;;;12.32;5.28;;;;;;;9.76;81.74;103058.47;5090429;28;20116;-52
2022/04/29 08:18:35;;;;;;;11.13;6.07;;;;;;;9.76;81.22;103054.03;5104168;28;20498;-56
2022/04/29 08:21:01;;;;;;;10.57;4.75;;;;;;;9.80;81.41;103053.13;5076726;28;20039;-56
2022/04/29 08:23:26;;;;;;;12.80;5.07;;;;;;;9.70;81.64;103062.00;5091551;28;20035;-55
2022/04/29 08:25:51;;;;;;;17.50;5.47;;;;;;;9.63;81.71;103063.81;5091169;28;20031;-53
2022/04/29 08:28:18;;;;;;;13.68;4.90;;;;;;;9.56;81.43;103059.44;5092363;28;20490;-56
2022/04/29 08:30:45;;;;;;;11.65;4.70;;;;;;;9.50;82.79;103057.72;5091862;28;20021;-52
2022/04/29 08:33:14;;;;;;;15.95;5.13;;;;;;;9.60;83.08;103063.81;5091626;28;20019;-53
2022/04/29 08:35:40;;;;;;;11.70;5.50;;;;;;;9.82;81.07;103059.31;5073348;28;20037;-54
2022/04/29 08:38:09;;;;;;;13.15;5.43;;;;;;;9.70;81.04;103062.00;5091995;28;20024;-55
2022/04/29 08:40:35;;;;;;;9.65;4.43;;;;;;;9.74;81.49;103065.53;5094039;28;20040;-54
2022/04/29 08:43:04;;;;;;;11.23;4.88;;;;;;;9.74;80.41;103063.75;5072372;28;20032;-54
2022/04/29 08:45:29;;;;;;;9.23;4.97;;;;;;;9.83;80.84;103068.09;5070713;28;20115;-51
2022/04/29 08:47:55;;;;;;;12.55;5.22;;;;;;;9.95;81.33;103075.13;5090058;28;20111;-54
2022/04/29 08:50:21;;;;;;;8.10;4.78;;;;;;;10.02;80.77;103068.00;5069275;28;20025;-52
2022/04/29 08:52:48;;;;;;;9.52;5.00;;;;;;;10.12;80.44;103069.69;5087986;28;20039;-53
2022/04/29 09:00:42;;;;;;;14.45;5.32;;;;;;;10.29;79.46;103069.56;5095371;28;20411;-55
2022/04/29 09:03:13;;;;;;;10.45;4.72;;;;;;;10.13;78.50;103072.34;5094942;28;20028;-49
2022/04/29 09:05:39;;;;;;;11.15;4.80;;;;;;;10.24;79.21;103074.03;5094902;28;20043;-53
2022/04/29 09:08:05;;;;;;;13.02;4.93;;;;;;;10.38;78.45;103079.25;5100490;28;20096;-55
2022/04/29 09:10:36;;;;;;;11.70;4.82;;;;;;;10.45;78.30;103087.13;5073862;28;20107;-53
2022/04/29 09:13:13;;;;;;;9.73;4.63;;;;;;;10.53;78.03;103089.72;5091866;28;20055;-53
2022/04/29 09:15:46;;;;;;;13.25;4.43;;;;;;;10.54;76.70;103075.59;5095317;28;20407;-53
2022/04/29 09:18:12;;;;;;;12.90;5.30;;;;;;;10.54;77.09;103064.09;5094690;28;20031;-53
2022/04/29 09:20:39;;;;;;;9.77;5.55;;;;;;;10.59;77.83;103062.31;5094439;28;20032;-50
2022/04/29 09:23:05;;;;;;;13.88;6.18;;;;;;;10.72;78.10;103057.75;5094958;28;20058;-55
2022/04/29 09:25:37;;;;;;;15.40;5.63;;;;;;;10.77;77.69;103051.50;5075990;28;20490;-55
2022/04/29 09:28:04;;;;;;;11.32;5.82;;;;;;;10.84;77.39;103047.03;5094756;28;20027;-54
2022/04/29 09:30:41;;;;;;;13.25;6.10;;;;;;;10.98;76.72;103045.13;5075976;28;20032;-56
2022/04/29 09:33:24;;;;;;;13.27;5.47;;;;;;;11.22;76.06;103047.50;5094209;28;20058;-53
2022/04/29 09:35:50;;;;;;;11.88;4.88;;;;;;;11.55;74.19;103055.94;5095446;28;20035;-54
2022/04/29 09:41:01;;;;;;;10.23;4.97;;;;;;;11.23;73.75;103051.91;5094498;28;20054;-54
2022/04/29 09:43:37;;;;;;;13.48;4.70;;;;;;;11.32;74.18;103051.78;5090623;28;20023;-54
2022/04/29 09:46:12;;;;;;;12.55;5.00;;;;;;;11.48;73.05;103047.16;5097043;28;20080;-55
2022/04/29 09:49:10;;;;;;;10.98;4.60;;;;;;;11.66;73.08;103039.84;5114439;28;20470;-54
2022/04/29 09:51:47;;;;;;;11.88;4.60;;;;;;;11.59;71.54;103039.06;5057848;28;20059;-55
2022/04/29 09:54:16;;;;;;;11.05;4.40;;;;;;;11.58;72.82;103047.91;5077295;28;20066;-55
2022/04/29 09:56:46;;;;;;;10.18;5.05;;;;;;;11.66;72.02;103053.13;5094138;28;20016;-55
2022/04/29 09:59:13;;;;;;;8.10;4.35;;;;;;;11.59;72.46;103053.19;5090501;28;20043;-56
2022/04/29 10:01:40;;;;;;;9.73;4.50;;;;;;;11.43;72.29;103041.91;5094094;28;20447;-56
2022/04/29 10:04:06;;;;;;;10.02;4.40;;;;;;;11.39;73.51;103048.16;5084997;28;20068;-55
2022/04/29 10:06:32;;;;;;;10.05;4.85;;;;;;;11.45;73.72;103053.38;5090019;28;20059;-53
2022/04/29 10:08:59;;;;;;;9.05;4.57;;;;;;;11.42;71.27;103066.69;5093528;28;20063;-55
2022/04/29 10:11:28;;;;;;;8.95;4.80;;;;;;;11.07;72.00;103062.66;5093125;28;20027;-55
2022/04/29 10:13:55;;;;;;;10.27;4.50;;;;;;;11.10;74.43;103067.06;5094952;28;20032;-55
2022/04/29 10:16:24;;;;;;;8.35;4.32;;;;;;;11.25;72.67;103063.34;5093614;28;20027;-55
2022/04/29 10:21:58;;;;;;;9.15;4.30;;;;;;;11.55;71.76;103046.19;5089920;28;20093;-52
2022/04/29 10:24:25;;;;;;;10.85;4.35;;;;;;;11.98;70.70;103052.66;5084766;28;20445;-52
2022/04/29 10:26:53;;;;;;;8.70;4.32;;;;;;;12.14;69.08;103053.31;5093125;28;20028;-56
2022/04/29 10:29:18;;;;;;;10.10;4.00;;;;;;;12.20;68.94;103060.28;5097106;28;20031;-54
2022/04/29 10:32:06;;;;;;;7.80;4.07;;;;;;;12.34;69.25;103060.97;5093587;28;20028;-51
2022/04/29 10:34:31;;;;;;;10.43;4.60;;;;;;;12.57;66.98;103052.59;5084521;28;20119;-55
2022/04/29 10:36:58;;;;;;;8.38;4.38;;;;;;;12.75;67.86;103046.06;5085871;28;20460;-54
2022/04/29 10:39:24;;;;;;;11.10;4.72;;;;;;;12.40;66.91;103057.31;5058006;28;20039;-54
2022/04/29 10:42:08;;;;;;;10.98;4.78;;;;;;;12.41;67.62;103053.78;5073910;28;20047;-52
2022/04/29 10:44:34;;;;;;;8.38;4.25;;;;;;;12.61;68.04;103051.63;5084564;28;20058;-56
2022/04/29 10:47:23;;;;;;;11.38;4.63;;;;;;;12.69;68.49;103051.50;5088145;28;20458;-55
2022/04/29 10:49:48;;;;;;;9.82;5.30;;;;;;;12.89;66.78;103042.25;5091496;28;20471;-52
2022/04/29 10:52:25;;;;;;;9.45;4.93;;;;;;;13.10;65.83;103062.25;5092110;28;20024;-53
2022/04/29 10:54:56;;;;;;;8.27;4.68;;;;;;;13.77;63.91;103048.44;5093452;28;20027;-53
2022/04/29 10:57:36;;;;;;;10.07;4.30;;;;;;;14.20;59.61;103035.88;5072762;28;20032;-53
2022/04/29 11:00:09;;;;;;;9.45;4.60;;;;;;;14.31;59.55;103040.94;5083781;28;20545;-57
2022/04/29 11:02:35;;;;;;;11.82;4.38;;;;;;;14.35;59.87;103048.81;5092445;28;20028;-53
2022/04/29 11:05:02;;;;;;;10.52;4.18;;;;;;;14.42;59.39;103029.09;5092756;28;20035;-56
2022/04/29 11:07:42;;;;;;;7.93;4.45;;;;;;;14.38;58.02;103031.88;5092799;28;20024;-55
2022/04/29 11:10:12;;;;;;;7.47;4.32;;;;;;;14.53;58.13;103036.81;5074958;28;20493;-55
2022/04/29 11:12:39;;;;;;;7.63;4.20;;;;;;;14.73;58.11;103046.97;5092096;28;20475;-53
2022/04/29 11:15:16;;;;;;;9.35;4.55;;;;;;;15.00;56.19;103048.91;5081826;28;20054;-56
2022/04/29 11:17:43;;;;;;;8.07;4.50;;;;;;;15.26;56.81;103044.63;5071472;28;20103;-55
2022/04/29 11:20:16;;;;;;;7.03;4.00;;;;;;;16.00;54.96;103045.91;5068843;28;20012;-54
2022/04/29 11:25:48;;;;;;;7.90;3.85;;;;;;;17.03;47.94;103052.22;5097228;28;20034;-51
2022/04/29 11:28:14;;;;;;;10.63;4.20;;;;;;;16.55;48.40;103045.84;5089518;28;20503;-56
2022/04/29 11:30:40;;;;;;;7.22;3.80;;;;;;;16.12;49.25;103044.63;5093776;28;20092;-56
2022/04/29 11:33:05;;;;;;;10.20;4.70;;;;;;;15.89;50.71;103046.28;5074541;28;20036;-59
2022/04/29 11:35:31;;;;;;;8.48;4.20;;;;;;;15.36;51.67;103036.28;5091210;28;20119;-59
2022/04/29 11:37:58;;;;;;;9.10;4.13;;;;;;;15.39;51.96;103046.88;5091721;28;20031;-60
2022/04/29 11:40:26;;;;;;;8.82;5.00;;;;;;;15.54;53.04;103040.19;5074282;28;20086;-59
2022/04/29 11:42:51;;;;;;;8.93;4.68;;;;;;;15.45;53.19;103034.25;5091995;28;20032;-58
2022/04/29 11:45:23;;;;;;;11.45;4.80;;;;;;;15.33;53.53;103030.16;5091324;28;20047;-59
2022/04/29 11:47:48;;;;;;;9.25;4.40;;;;;;;15.71;51.60;103028.13;5092490;28;20020;-58
2022/04/29 11:50:13;;;;;;;8.18;4.38;;;;;;;15.09;53.32;103024.66;5091251;28;20035;-60